Time;durP1;ratioP1;P1;durP2;ratioP2;P2;SDS_P1;SDS_P2;PMS_P1;PMS_P2;Temp;Humidity;BMP_temperature;BMP_pressure;BME280_temperature;BME280_humidity;BME280_pressure;Samples;Min_cycle;Max_cycle;Signal;HPM_P1;HPM_P2
2020/12/18 00:01:36;;;;;;;;;;;;;;;;;;;;;
2020/12/18 00:04:16;;;;;;;;;;;;;;;19.49;68.86;101666.13;5069997;28;1036;-76
2020/12/18 00:06:55;;;;;;;;;;;;;;;19.48;69.11;101671.50;5069879;28;1232;-76
2020/12/18 00:09:26;;;;;;;;;;;;;;;19.46;68.58;101668.91;5066685;28;2015;-76
2020/12/18 00:11:53;;;;;;;;;;;;;;;19.49;69.08;101670.56;5069526;28;1307;-76
2020/12/18 00:14:19;;;;;;;;;;;;;;;19.46;69.08;101668.91;5069817;28;875;-77
2020/12/18 00:16:46;;;;;;;;;;;;;;;19.46;68.85;101662.78;5083860;28;1232;-78
2020/12/18 00:19:16;;;;;;;;;;;;;;;19.51;68.67;101660.78;5071772;28;1404;-73
2020/12/18 00:21:48;;;;;;;;;;;;;;;19.54;68.57;101660.66;5088375;28;1988;-74
2020/12/18 00:24:28;;;;;;;;;;;;;;;19.56;68.86;101661.44;5066921;28;1888;-73
2020/12/18 00:26:55;;;;;;;;;;;;;;;19.56;69.10;101653.50;5071899;28;1253;-73
2020/12/18 00:29:21;;;;;;;;;;;;;;;19.58;68.50;101657.78;5089932;28;905;-72
2020/12/18 00:31:47;;;;;;;;;;;;;;;19.57;68.49;101661.38;5089622;28;1252;-73
2020/12/18 00:34:16;;;;;;;;;;;;;;;19.57;68.26;101664.03;5089336;28;1047;-72
2020/12/18 00:36:55;;;;;;;;;;;;;;;19.56;68.57;101664.94;5071422;28;1291;-74
2020/12/18 00:39:21;;;;;;;;;;;;;;;19.61;68.13;101667.34;5089228;28;920;-74
2020/12/18 00:41:52;;;;;;;;;;;;;;;19.56;68.28;101670.22;5071097;28;1910;-74
2020/12/18 00:44:18;;;;;;;;;;;;;;;19.56;68.28;101669.34;5089229;28;1038;-74
2020/12/18 00:46:50;;;;;;;;;;;;;;;19.54;68.43;101672.09;5089179;28;1276;-73
2020/12/18 00:49:16;;;;;;;;;;;;;;;19.55;68.37;101665.00;5071081;28;1682;-72
2020/12/18 00:51:42;;;;;;;;;;;;;;;19.60;68.30;101663.00;5088825;28;1338;-74
2020/12/18 00:54:08;;;;;;;;;;;;;;;19.60;68.22;101666.53;5089315;28;1154;-73
2020/12/18 00:56:35;;;;;;;;;;;;;;;19.62;67.97;101669.06;5071066;28;1350;-73
2020/12/18 00:59:01;;;;;;;;;;;;;;;19.63;67.82;101670.81;5087885;28;1202;-73
2020/12/18 01:01:27;;;;;;;;;;;;;;;19.65;67.97;101668.94;5088496;28;1346;-73
2020/12/18 01:03:53;;;;;;;;;;;;;;;19.66;67.86;101672.44;5070904;28;1997;-74
2020/12/18 01:06:19;;;;;;;;;;;;;;;19.59;68.09;101670.09;5087665;28;1447;-74
2020/12/18 01:08:46;;;;;;;;;;;;;;;19.59;68.29;101674.50;5089098;28;1146;-73
2020/12/18 01:11:12;;;;;;;;;;;;;;;19.60;68.15;101668.31;5089306;28;1228;-72
2020/12/18 01:13:38;;;;;;;;;;;;;;;19.62;68.38;101672.59;5070832;28;1203;-72
2020/12/18 01:16:04;;;;;;;;;;;;;;;19.59;68.18;101677.16;5089100;28;1330;-72
2020/12/18 01:18:30;;;;;;;;;;;;;;;19.61;68.01;101678.78;5087653;28;1127;-72
2020/12/18 01:20:59;;;;;;;;;;;;;;;19.60;68.28;101678.88;5087618;28;1242;-72
2020/12/18 01:23:25;;;;;;;;;;;;;;;19.57;68.17;101681.66;5087442;28;1985;-72
2020/12/18 01:25:51;;;;;;;;;;;;;;;19.60;68.32;101681.50;5089067;28;1350;-71
2020/12/18 01:28:17;;;;;;;;;;;;;;;19.64;68.13;101680.44;5089182;28;1152;-72
2020/12/18 01:30:44;;;;;;;;;;;;;;;19.59;68.19;101679.78;5070918;28;1237;-72
2020/12/18 01:33:11;;;;;;;;;;;;;;;19.58;68.20;101684.22;5087459;28;1406;-71
2020/12/18 01:35:37;;;;;;;;;;;;;;;19.59;68.21;101690.38;5088848;28;976;-72
2020/12/18 01:38:03;;;;;;;;;;;;;;;19.60;67.97;101694.72;5088722;28;1297;-71
2020/12/18 01:40:30;;;;;;;;;;;;;;;19.58;67.81;101699.22;5070697;28;1162;-72
2020/12/18 01:42:56;;;;;;;;;;;;;;;19.59;67.83;101695.66;5088442;28;1972;-72
2020/12/18 01:45:23;;;;;;;;;;;;;;;19.60;67.78;101697.38;5087049;28;1229;-73
2020/12/18 01:47:49;;;;;;;;;;;;;;;19.60;67.83;101686.81;5087331;28;1287;-74
2020/12/18 01:50:15;;;;;;;;;;;;;;;19.60;67.85;101692.09;5088990;28;1070;-72
2020/12/18 01:52:43;;;;;;;;;;;;;;;19.62;67.81;101690.22;5086931;28;1212;-72
2020/12/18 01:55:09;;;;;;;;;;;;;;;19.60;68.27;101697.38;5088927;28;1180;-71
2020/12/18 01:57:36;;;;;;;;;;;;;;;19.58;68.14;101691.28;5088260;28;1232;-71
2020/12/18 02:00:06;;;;;;;;;;;;;;;19.59;68.13;101685.06;5086836;28;1323;-71
2020/12/18 02:02:32;;;;;;;;;;;;;;;19.57;67.96;101687.81;5088098;28;1906;-72
2020/12/18 02:04:59;;;;;;;;;;;;;;;19.55;68.16;101684.34;5089853;28;1397;-72
2020/12/18 02:07:27;;;;;;;;;;;;;;;19.57;68.13;101671.94;5092697;28;1370;-71
2020/12/18 02:09:53;;;;;;;;;;;;;;;19.61;67.85;101673.50;5092162;28;1083;-75
2020/12/18 02:12:20;;;;;;;;;;;;;;;19.56;68.33;101659.66;5092155;28;1235;-76
2020/12/18 02:14:47;;;;;;;;;;;;;;;19.59;67.88;101672.72;5092687;28;1095;-72
2020/12/18 02:17:13;;;;;;;;;;;;;;;19.57;67.98;101673.72;5092187;28;1322;-73
2020/12/18 02:19:42;;;;;;;;;;;;;;;19.58;68.07;101671.00;5091035;28;1072;-75
2020/12/18 02:22:10;;;;;;;;;;;;;;;19.57;68.18;101671.09;5092044;28;1910;-75
2020/12/18 02:24:38;;;;;;;;;;;;;;;19.57;67.89;101671.09;5090968;28;1332;-74
2020/12/18 02:27:04;;;;;;;;;;;;;;;19.59;68.11;101672.72;5092398;28;1224;-72
2020/12/18 02:29:30;;;;;;;;;;;;;;;19.57;67.92;101673.72;5091458;28;910;-77
2020/12/18 02:31:57;;;;;;;;;;;;;;;19.57;67.96;101666.66;5092458;28;1327;-77
2020/12/18 02:34:23;;;;;;;;;;;;;;;19.58;67.68;101670.13;5096449;28;1044;-76
2020/12/18 02:36:50;;;;;;;;;;;;;;;19.56;68.01;101661.44;5091670;28;1232;-76
2020/12/18 02:39:16;;;;;;;;;;;;;;;19.53;67.86;101665.06;5073546;28;1294;-75
2020/12/18 02:41:42;;;;;;;;;;;;;;;19.53;68.07;101664.22;5090307;28;1517;-75
2020/12/18 02:44:09;;;;;;;;;;;;;;;19.51;68.14;101660.78;5090535;28;2019;-75
2020/12/18 02:46:35;;;;;;;;;;;;;;;19.50;68.09;101657.28;5091670;28;1311;-76
2020/12/18 02:49:01;;;;;;;;;;;;;;;19.49;67.95;101662.63;5091765;28;1030;-74
2020/12/18 02:51:46;;;;;;;;;;;;;;;19.48;67.95;101661.78;5091987;28;1286;-76
2020/12/18 02:54:22;;;;;;;;;;;;;;;19.48;68.09;101660.94;5074912;28;1261;-77
2020/12/18 02:56:52;;;;;;;;;;;;;;;19.47;68.08;101665.34;5074124;28;1371;-75
2020/12/18 03:02:26;;;;;;;;;;;;;;;19.50;67.92;101664.34;5090864;28;1995;-75
2020/12/18 03:05:40;;;;;;;;;;;;;;;19.51;68.06;101661.66;5008559;28;1455;-73
2020/12/18 03:08:39;;;;;;;;;;;;;;;;;;;;;
2020/12/18 03:14:58;;;;;;;;;;;;;;;19.50;68.15;101669.63;5111452;28;623;-76
2020/12/18 03:20:57;;;;;;;;;;;;;;;19.50;68.14;101661.72;5111316;28;1234;-74
2020/12/18 03:23:25;;;;;;;;;;;;;;;19.50;68.03;101656.44;5126759;27;1913;-76
2020/12/18 03:26:10;;;;;;;;;;;;;;;19.48;68.16;101660.94;5143740;27;1509;-75
2020/12/18 03:28:56;;;;;;;;;;;;;;;19.48;67.90;101663.56;5105989;28;2255;-76
2020/12/18 03:31:26;;;;;;;;;;;;;;;19.51;67.87;101645.81;5109488;28;1307;-74
2020/12/18 03:33:52;;;;;;;;;;;;;;;19.49;68.05;101638.84;5111387;28;1009;-74
2020/12/18 03:36:18;;;;;;;;;;;;;;;19.56;67.63;101640.28;5111105;28;1336;-71
2020/12/18 03:38:44;;;;;;;;;;;;;;;19.59;67.74;101642.78;5110970;28;1045;-68
2020/12/18 03:41:10;;;;;;;;;;;;;;;19.57;67.55;101644.66;5111178;28;1244;-72
2020/12/18 03:43:36;;;;;;;;;;;;;;;19.62;68.03;101643.50;5111382;28;1980;-73
2020/12/18 03:46:03;;;;;;;;;;;;;;;19.55;68.23;101641.22;5111093;28;1235;-73
2020/12/18 03:48:29;;;;;;;;;;;;;;;19.48;68.12;101635.38;5111531;28;1007;-73
2020/12/18 03:50:55;;;;;;;;;;;;;;;19.45;68.33;101634.66;5109635;28;1207;-74
2020/12/18 03:53:22;;;;;;;;;;;;;;;19.42;68.40;101632.16;5110968;28;1073;-73
2020/12/18 03:55:48;;;;;;;;;;;;;;;19.38;68.39;101630.53;5108929;28;1536;-75
2020/12/18 03:58:14;;;;;;;;;;;;;;;19.36;68.37;101630.59;5092306;28;1523;-76
2020/12/18 04:00:41;;;;;;;;;;;;;;;19.36;68.38;101635.88;5110754;28;1040;-74
2020/12/18 04:03:07;;;;;;;;;;;;;;;19.33;68.54;101630.72;5109047;28;2000;-75
2020/12/18 04:05:33;;;;;;;;;;;;;;;19.33;68.73;101629.91;5110423;28;799;-75
2020/12/18 04:07:59;;;;;;;;;;;;;;;19.31;68.83;101637.88;5109443;28;1584;-75
2020/12/18 04:10:25;;;;;;;;;;;;;;;19.31;68.54;101634.38;5110502;28;1437;-76
2020/12/18 04:12:52;;;;;;;;;;;;;;;19.29;68.47;101623.88;5110465;28;1275;-75
2020/12/18 04:15:18;;;;;;;;;;;;;;;19.28;68.88;101626.59;5109005;28;1079;-76
2020/12/18 04:17:45;;;;;;;;;;;;;;;19.26;68.64;101625.81;5108792;28;1256;-75
2020/12/18 04:20:11;;;;;;;;;;;;;;;19.25;68.71;101622.31;5109031;28;1187;-75
2020/12/18 04:22:38;;;;;;;;;;;;;;;19.25;68.58;101618.78;5125738;27;1984;-74
2020/12/18 04:25:04;;;;;;;;;;;;;;;19.24;68.89;101620.56;5110172;28;829;-74
2020/12/18 04:27:30;;;;;;;;;;;;;;;19.23;68.90;101625.94;5108040;28;1196;-74
2020/12/18 04:29:56;;;;;;;;;;;;;;;19.22;69.09;101611.00;5110314;28;829;-74
2020/12/18 04:32:23;;;;;;;;;;;;;;;19.21;68.80;101619.88;5110514;28;1240;-74
2020/12/18 04:34:49;;;;;;;;;;;;;;;19.22;68.88;101616.28;5110284;28;947;-72
2020/12/18 04:37:16;;;;;;;;;;;;;;;19.21;69.02;101612.78;5110276;28;1226;-73
2020/12/18 04:39:42;;;;;;;;;;;;;;;19.21;68.74;101619.88;5108819;28;812;-73
2020/12/18 04:42:08;;;;;;;;;;;;;;;19.22;68.90;101616.28;5109524;28;1992;-73
2020/12/18 04:44:38;;;;;;;;;;;;;;;19.23;68.66;101618.03;5108154;28;1122;-80
2020/12/18 04:47:05;;;;;;;;;;;;;;;19.23;68.85;101613.59;5108200;28;1239;-74
2020/12/18 04:49:32;;;;;;;;;;;;;;;19.22;69.00;101621.59;5109880;28;861;-74
2020/12/18 04:52:00;;;;;;;;;;;;;;;19.22;68.97;101618.94;5109621;28;1330;-73
2020/12/18 04:54:27;;;;;;;;;;;;;;;19.22;68.72;101611.88;5109681;27;849;-73
2020/12/18 04:56:54;;;;;;;;;;;;;;;19.16;69.02;101612.16;5107990;28;1282;-73
2020/12/18 04:59:22;;;;;;;;;;;;;;;19.19;68.83;101619.94;5109526;28;821;-73
2020/12/18 05:01:51;;;;;;;;;;;;;;;19.21;68.69;101615.44;5108154;28;1352;-73
2020/12/18 05:04:19;;;;;;;;;;;;;;;19.23;68.68;101623.31;5109314;28;1909;-73
2020/12/18 05:06:46;;;;;;;;;;;;;;;19.22;68.82;101619.81;5109451;27;1220;-73
2020/12/18 05:09:12;;;;;;;;;;;;;;;19.22;68.69;101626.88;5091216;28;1290;-73
2020/12/18 05:11:38;;;;;;;;;;;;;;;19.21;68.59;101622.53;5109327;28;1508;-72
2020/12/18 05:14:05;;;;;;;;;;;;;;;19.20;68.96;101628.72;5134521;27;1545;-72
2020/12/18 05:16:31;;;;;;;;;;;;;;;19.20;68.52;101626.94;5105774;28;1315;-76
2020/12/18 05:19:02;;;;;;;;;;;;;;;19.20;68.86;101628.72;5089676;28;1532;-74
2020/12/18 05:21:29;;;;;;;;;;;;;;;19.21;68.80;101625.16;5093222;28;1429;-72
2020/12/18 05:23:59;;;;;;;;;;;;;;;19.21;68.63;101630.44;5106042;28;1991;-72
2020/12/18 05:26:30;;;;;;;;;;;;;;;19.21;68.88;101630.44;5108907;28;1270;-72
2020/12/18 05:29:06;;;;;;;;;;;;;;;19.19;68.85;101627.88;5109625;28;1186;-73
2020/12/18 05:31:32;;;;;;;;;;;;;;;19.30;68.63;101624.75;5105169;28;1346;-73
2020/12/18 05:34:00;;;;;;;;;;;;;;;19.24;68.54;101627.66;5088875;28;1054;-76
2020/12/18 05:36:27;;;;;;;;;;;;;;;19.21;68.65;101633.91;5088747;28;1362;-77
2020/12/18 05:38:53;;;;;;;;;;;;;;;19.19;68.77;101625.22;5087479;28;1290;-77
2020/12/18 05:41:26;;;;;;;;;;;;;;;19.19;68.79;101627.00;5088652;28;1248;-76
2020/12/18 05:43:52;;;;;;;;;;;;;;;19.18;69.00;101626.13;5093633;28;1977;-75
2020/12/18 05:46:22;;;;;;;;;;;;;;;19.17;68.92;101624.44;5095428;28;1482;-76
2020/12/18 05:49:00;;;;;;;;;;;;;;;19.25;69.92;101622.31;5109603;28;1050;-74
2020/12/18 05:51:34;;;;;;;;;;;;;;;19.19;68.84;101625.22;5094977;28;1409;-73
2020/12/18 05:54:15;;;;;;;;;;;;;;;19.16;68.75;101622.72;5107028;28;1089;-73
2020/12/18 05:56:48;;;;;;;;;;;;;;;19.16;69.06;101633.28;5109138;28;1319;-72
2020/12/18 05:59:17;;;;;;;;;;;;;;;19.16;68.79;101635.06;5109569;28;1035;-72
2020/12/18 06:01:45;;;;;;;;;;;;;;;19.15;68.92;101636.00;5094832;28;1315;-72
2020/12/18 06:04:12;;;;;;;;;;;;;;;19.16;68.88;101637.69;5087220;28;1963;-72
2020/12/18 06:06:40;;;;;;;;;;;;;;;19.13;69.00;101636.06;5088612;28;1316;-71
2020/12/18 06:09:08;;;;;;;;;;;;;;;19.12;68.97;101638.78;5087648;28;1191;-71
2020/12/18 06:11:34;;;;;;;;;;;;;;;19.12;68.90;101636.97;5086983;28;1345;-71
2020/12/18 06:14:01;;;;;;;;;;;;;;;19.10;69.04;101634.41;5088944;28;1269;-70
2020/12/18 06:16:28;;;;;;;;;;;;;;;19.10;69.08;101634.41;5087192;28;1405;-69
2020/12/18 06:19:03;;;;;;;;;;;;;;;19.12;69.14;101636.16;5087159;28;1284;-72
2020/12/18 06:21:29;;;;;;;;;;;;;;;19.11;69.12;101630.00;5082184;28;1314;-73
2020/12/18 06:23:56;;;;;;;;;;;;;;;19.10;68.89;101626.50;5111248;28;1906;-72
2020/12/18 06:26:22;;;;;;;;;;;;;;;19.12;69.14;101630.88;5107511;28;1255;-73
2020/12/18 06:28:48;;;;;;;;;;;;;;;19.10;69.06;101631.78;5108944;28;920;-73
2020/12/18 06:31:25;;;;;;;;;;;;;;;19.10;69.27;101636.19;5124467;28;1390;-72
2020/12/18 06:33:52;;;;;;;;;;;;;;;19.09;69.10;101635.34;5110217;28;1056;-72
2020/12/18 06:36:19;;;;;;;;;;;;;;;19.06;69.01;101632.81;5133167;28;1200;-74
2020/12/18 06:38:46;;;;;;;;;;;;;;;19.09;69.23;101632.69;5134106;27;989;-73
2020/12/18 06:41:25;;;;;;;;;;;;;;;19.10;69.17;101628.28;5133888;28;1259;-74
2020/12/18 06:43:51;;;;;;;;;;;;;;;19.46;68.89;101641.63;5124011;28;1890;-70
2020/12/18 06:46:19;;;;;;;;;;;;;;;19.44;68.51;101636.44;5093695;28;1224;-72
2020/12/18 06:48:49;;;;;;;;;;;;;;;19.33;68.62;101635.19;5088755;28;925;-74
2020/12/18 06:51:26;;;;;;;;;;;;;;;19.26;68.67;101639.00;5092254;28;1315;-74
2020/12/18 06:54:21;;;;;;;;;;;;;;;19.25;68.81;101637.28;5094948;28;1023;-76
2020/12/18 06:56:47;;;;;;;;;;;;;;;19.43;68.46;101633.84;5082823;28;1213;-75
2020/12/18 06:59:17;;;;;;;;;;;;;;;19.43;68.64;101628.56;5092064;28;921;-75
2020/12/18 07:01:47;;;;;;;;;;;;;;;19.25;68.87;101637.28;5073660;28;1258;-73
2020/12/18 07:04:21;;;;;;;;;;;;;;;19.19;68.94;101632.28;5092165;28;1993;-73
2020/12/18 07:06:47;;;;;;;;;;;;;;;19.16;68.91;101635.06;5091334;28;1323;-73
2020/12/18 07:09:15;;;;;;;;;;;;;;;19.12;68.90;101633.50;5094570;28;1043;-73
2020/12/18 07:11:44;;;;;;;;;;;;;;;19.10;68.74;101639.69;5091963;28;1368;-73
2020/12/18 07:14:15;;;;;;;;;;;;;;;19.08;68.73;101636.28;5124538;27;1200;-71
2020/12/18 07:16:52;;;;;;;;;;;;;;;19.07;68.78;101637.19;5091129;28;1361;-73
2020/12/18 07:19:18;;;;;;;;;;;;;;;19.04;68.71;101632.06;5091349;28;770;-73
2020/12/18 07:21:46;;;;;;;;;;;;;;;19.07;68.54;101638.97;5091201;28;1232;-74
2020/12/18 07:24:12;;;;;;;;;;;;;;;19.05;68.56;101639.06;5091513;28;1914;-73
2020/12/18 07:26:38;;;;;;;;;;;;;;;19.06;68.57;101642.53;5091586;28;1240;-73
2020/12/18 07:29:05;;;;;;;;;;;;;;;19.12;68.34;101636.16;5089951;28;1330;-74
2020/12/18 07:31:31;;;;;;;;;;;;;;;19.15;68.43;101636.00;5073114;28;1285;-74
2020/12/18 07:33:59;;;;;;;;;;;;;;;19.27;67.91;101635.47;5091022;28;1083;-70
2020/12/18 07:36:28;;;;;;;;;;;;;;;19.25;68.14;101642.56;5090898;28;1232;-70
2020/12/18 07:38:57;;;;;;;;;;;;;;;19.28;68.17;101642.44;5090880;28;928;-70
2020/12/18 07:41:24;;;;;;;;;;;;;;;19.31;68.06;101647.56;5092477;28;1239;-74
2020/12/18 07:43:51;;;;;;;;;;;;;;;19.32;68.03;101644.88;5091595;28;1913;-72
2020/12/18 07:46:18;;;;;;;;;;;;;;;19.27;68.30;101635.47;5089520;28;1251;-72
2020/12/18 07:48:46;;;;;;;;;;;;;;;19.32;67.95;101642.25;5091475;28;1124;-69
2020/12/18 07:51:18;;;;;;;;;;;;;;;19.35;67.92;101638.59;5090972;28;1307;-71
2020/12/18 07:53:45;;;;;;;;;;;;;;;19.44;67.68;101643.50;5090828;28;945;-73
2020/12/18 07:56:16;;;;;;;;;;;;;;;19.57;67.45;101639.38;5072331;28;1228;-70
2020/12/18 07:58:42;;;;;;;;;;;;;;;19.57;67.23;101636.72;5089213;28;941;-72
2020/12/18 08:01:13;;;;;;;;;;;;;;;19.72;66.81;101640.44;5088637;28;1278;-72
2020/12/18 08:03:44;;;;;;;;;;;;;;;19.71;67.01;101650.16;5089677;28;1913;-72
2020/12/18 08:06:18;;;;;;;;;;;;;;;19.69;67.00;101649.38;5090151;28;1318;-72
2020/12/18 08:08:48;;;;;;;;;;;;;;;19.69;66.96;101648.50;5090582;28;1104;-72
2020/12/18 08:11:15;;;;;;;;;;;;;;;19.66;67.02;101646.00;5088218;28;1631;-71
2020/12/18 08:13:41;;;;;;;;;;;;;;;19.65;67.06;101647.78;5088679;28;1123;-72
2020/12/18 08:16:09;;;;;;;;;;;;;;;19.65;66.90;101647.78;5088444;28;1228;-71
2020/12/18 08:18:36;;;;;;;;;;;;;;;19.62;67.05;101650.56;5088741;28;1064;-72
2020/12/18 08:21:02;;;;;;;;;;;;;;;19.60;67.05;101648.03;5092324;28;1389;-71
2020/12/18 08:23:29;;;;;;;;;;;;;;;19.60;67.18;101655.09;5088305;28;1913;-72
2020/12/18 08:25:56;;;;;;;;;;;;;;;19.58;67.04;101651.63;5089644;28;1315;-71
2020/12/18 08:28:24;;;;;;;;;;;;;;;19.58;67.08;101649.00;5088556;28;1065;-72
2020/12/18 08:30:50;;;;;;;;;;;;;;;19.65;66.85;101650.44;5089668;28;1208;-72
2020/12/18 08:33:17;;;;;;;;;;;;;;;19.71;66.73;101649.28;5089545;28;1152;-71
2020/12/18 08:35:47;;;;;;;;;;;;;;;19.74;66.71;101651.78;5089263;28;786;-72
2020/12/18 08:38:13;;;;;;;;;;;;;;;19.80;66.39;101655.00;5087680;28;1263;-71
2020/12/18 08:40:43;;;;;;;;;;;;;;;19.89;65.98;101651.91;5089373;28;786;-72
2020/12/18 08:43:10;;;;;;;;;;;;;;;19.97;65.98;101652.41;5089463;28;1891;-72
2020/12/18 08:45:44;;;;;;;;;;;;;;;20.00;66.16;101649.63;5088128;28;818;-73
2020/12/18 08:48:10;;;;;;;;;;;;;;;20.04;66.18;101652.97;5089065;28;1280;-73
2020/12/18 08:50:37;;;;;;;;;;;;;;;19.90;67.26;101656.28;5087588;28;1313;-72
2020/12/18 08:53:11;;;;;;;;;;;;;;;19.67;65.71;101656.50;5088340;28;1353;-73
2020/12/18 08:55:38;;;;;;;;;;;;;;;19.17;67.91;101655.28;5087908;28;711;-73
2020/12/18 08:58:04;;;;;;;;;;;;;;;19.36;68.06;101658.81;5077490;27;1858;-77
2020/12/18 09:00:31;;;;;;;;;;;;;;;19.17;68.60;101656.13;5109401;27;1239;-78
2020/12/18 09:02:58;;;;;;;;;;;;;;;19.38;69.57;101662.25;5111722;27;1906;-76
2020/12/18 09:05:28;;;;;;;;;;;;;;;19.79;68.74;101660.38;5106144;27;1526;-73
2020/12/18 09:07:57;;;;;;;;;;;;;;;20.01;68.30;101661.91;5117728;27;1354;-74
2020/12/18 09:10:51;;;;;;;;;;;;;;;20.03;68.49;101667.97;5107146;28;1437;-72
2020/12/18 09:13:18;;;;;;;;;;;;;;;20.04;68.23;101666.19;5106060;28;1180;-72
2020/12/18 09:15:47;;;;;;;;;;;;;;;20.03;68.12;101673.25;5107315;28;1247;-72
2020/12/18 09:18:14;;;;;;;;;;;;;;;20.03;67.88;101675.09;5107380;28;1334;-73
2020/12/18 09:20:42;;;;;;;;;;;;;;;20.03;67.87;101685.66;5108050;28;813;-73
2020/12/18 09:23:09;;;;;;;;;;;;;;;20.02;67.90;101679.50;5107741;28;1913;-72
2020/12/18 09:25:48;;;;;;;;;;;;;;;20.01;67.91;101685.72;5107451;28;845;-73
2020/12/18 09:28:17;;;;;;;;;;;;;;;20.01;67.74;101685.72;5108128;28;952;-71
2020/12/18 09:30:47;;;;;;;;;;;;;;;20.00;67.80;101686.63;5107479;28;802;-72
2020/12/18 09:33:15;;;;;;;;;;;;;;;20.02;67.64;101690.09;5121228;27;1287;-71
2020/12/18 09:35:42;;;;;;;;;;;;;;;20.01;67.64;101680.44;5128044;27;789;-73
2020/12/18 09:38:09;;;;;;;;;;;;;;;20.00;67.63;101683.16;5128074;27;1212;-72
2020/12/18 09:40:36;;;;;;;;;;;;;;;20.00;67.58;101691.94;5126833;27;884;-72
2020/12/18 09:43:03;;;;;;;;;;;;;;;20.00;67.70;101685.81;5127982;27;1926;-72
2020/12/18 09:45:57;;;;;;;;;;;;;;;19.96;67.74;101690.38;5126374;28;1266;-72
2020/12/18 09:48:23;;;;;;;;;;;;;;;19.96;67.81;101684.22;5117911;28;1344;-71
2020/12/18 09:50:50;;;;;;;;;;;;;;;19.96;67.70;101684.22;5105786;28;1228;-71
2020/12/18 09:53:17;;;;;;;;;;;;;;;19.93;67.76;101685.22;5105636;28;1096;-73
2020/12/18 09:55:43;;;;;;;;;;;;;;;19.91;67.99;101686.25;5088655;28;1294;-76
2020/12/18 09:58:12;;;;;;;;;;;;;;;19.91;67.87;101686.25;5106979;28;1172;-79
2020/12/18 10:00:39;;;;;;;;;;;;;;;19.91;67.95;101687.06;5088708;28;1174;-79
2020/12/18 10:03:08;;;;;;;;;;;;;;;19.91;68.21;101689.72;5106846;28;1910;-77
2020/12/18 10:05:39;;;;;;;;;;;;;;;19.88;68.16;101692.50;5107148;28;1283;-80
2020/12/18 10:08:10;;;;;;;;;;;;;;;19.90;67.82;101689.81;5105598;28;1201;-80
2020/12/18 10:10:36;;;;;;;;;;;;;;;19.90;68.09;101692.44;5106940;28;1175;-75
2020/12/18 10:13:05;;;;;;;;;;;;;;;19.89;68.06;101694.22;5107471;28;1221;-75
2020/12/18 10:15:50;;;;;;;;;;;;;;;19.88;68.20;101696.97;5107454;28;848;-75
2020/12/18 10:18:16;;;;;;;;;;;;;;;19.85;68.28;101700.56;5106106;28;933;-75
2020/12/18 10:20:43;;;;;;;;;;;;;;;19.86;68.08;101704.94;5107799;28;726;-76
2020/12/18 10:23:09;;;;;;;;;;;;;;;19.85;68.40;101697.94;5107515;28;1933;-76
2020/12/18 10:25:56;;;;;;;;;;;;;;;19.86;68.44;101698.78;5109855;28;1059;-76
2020/12/18 10:28:31;;;;;;;;;;;;;;;19.83;68.37;101691.88;5111316;28;996;-74
2020/12/18 10:30:57;;;;;;;;;;;;;;;19.81;68.49;101683.16;5110271;28;1512;-76
2020/12/18 10:33:23;;;;;;;;;;;;;;;19.81;68.59;101679.66;5109695;28;1481;-75
2020/12/18 10:35:53;;;;;;;;;;;;;;;19.78;68.52;101674.50;5111449;28;1437;-75
2020/12/18 10:38:24;;;;;;;;;;;;;;;19.81;68.43;101675.22;5126133;27;1058;-75
2020/12/18 10:41:03;;;;;;;;;;;;;;;19.80;68.54;101668.22;5090714;28;1235;-74
2020/12/18 10:43:36;;;;;;;;;;;;;;;19.78;68.52;101664.81;5088451;28;1997;-75
2020/12/18 10:46:03;;;;;;;;;;;;;;;19.78;68.58;101653.38;5090232;28;1313;-74
2020/12/18 10:48:29;;;;;;;;;;;;;;;19.76;68.61;101644.66;5100639;28;1668;-74
2020/12/18 10:50:56;;;;;;;;;;;;;;;19.76;68.69;101647.31;5110790;28;1385;-74
2020/12/18 10:53:23;;;;;;;;;;;;;;;19.77;68.60;101644.56;5110825;28;904;-73
2020/12/18 10:55:49;;;;;;;;;;;;;;;19.77;68.57;101646.34;5110189;28;1333;-74
2020/12/18 10:58:18;;;;;;;;;;;;;;;19.76;68.70;101640.19;5108775;28;743;-75
2020/12/18 11:00:44;;;;;;;;;;;;;;;19.76;68.66;101645.50;5110844;28;1046;-74
2020/12/18 11:03:13;;;;;;;;;;;;;;;19.76;68.66;101642.00;5109866;28;1909;-73
2020/12/18 11:05:41;;;;;;;;;;;;;;;19.75;68.58;101635.88;5090868;27;1498;-72
2020/12/18 11:08:08;;;;;;;;;;;;;;;19.75;68.66;101637.66;5130480;27;1220;-72
2020/12/18 11:10:34;;;;;;;;;;;;;;;19.76;68.66;101634.09;5130740;27;1035;-71
2020/12/18 11:13:03;;;;;;;;;;;;;;;19.76;68.66;101629.63;5099970;27;1461;-74
2020/12/18 11:15:29;;;;;;;;;;;;;;;19.74;68.55;101626.22;5108205;28;913;-71
2020/12/18 11:17:56;;;;;;;;;;;;;;;19.73;68.51;101624.50;5108339;28;1208;-78
2020/12/18 11:20:22;;;;;;;;;;;;;;;19.75;68.65;101620.00;5110112;28;1084;-76
2020/12/18 11:22:48;;;;;;;;;;;;;;;19.76;68.42;101619.06;5091383;28;1989;-74
2020/12/18 11:25:15;;;;;;;;;;;;;;;19.78;68.42;101616.34;5108585;28;1036;-71
2020/12/18 11:27:41;;;;;;;;;;;;;;;19.82;68.23;101616.13;5109331;28;1334;-72
2020/12/18 11:30:07;;;;;;;;;;;;;;;19.79;68.42;101612.78;5108153;28;1017;-75
2020/12/18 11:32:34;;;;;;;;;;;;;;;19.76;68.61;101605.00;5109393;28;1323;-74
2020/12/18 11:35:00;;;;;;;;;;;;;;;19.76;68.46;101611.13;5122088;27;1074;-73
2020/12/18 11:37:29;;;;;;;;;;;;;;;19.75;68.49;101601.50;5089071;28;1232;-73
2020/12/18 11:39:56;;;;;;;;;;;;;;;19.82;68.19;101599.41;5101768;28;1542;-73
2020/12/18 11:42:22;;;;;;;;;;;;;;;19.76;68.34;101597.91;5107423;28;1181;-76
2020/12/18 11:44:48;;;;;;;;;;;;;;;19.75;68.37;101596.22;5109071;28;1906;-76
2020/12/18 11:47:14;;;;;;;;;;;;;;;19.72;68.30;101595.50;5090773;28;1228;-75
2020/12/18 11:49:41;;;;;;;;;;;;;;;19.70;68.54;101587.63;5109396;28;1074;-74
2020/12/18 11:52:07;;;;;;;;;;;;;;;19.68;68.40;101586.00;5107730;27;1898;-77
2020/12/18 11:54:34;;;;;;;;;;;;;;;19.69;68.28;101585.94;5105683;27;1477;-77
2020/12/18 11:57:00;;;;;;;;;;;;;;;19.66;68.29;101575.50;5093349;27;1370;-75
2020/12/18 11:59:27;;;;;;;;;;;;;;;19.65;68.28;101576.41;5091486;27;1278;-75
2020/12/18 12:01:53;;;;;;;;;;;;;;;19.67;68.28;101571.09;5106962;27;1555;-76
2020/12/18 12:04:20;;;;;;;;;;;;;;;19.60;68.43;101566.09;5087508;28;1977;-76
2020/12/18 12:06:46;;;;;;;;;;;;;;;19.57;68.33;101563.59;5095450;28;1514;-77
2020/12/18 12:09:14;;;;;;;;;;;;;;;19.59;68.29;101555.56;5099654;28;1260;-77
2020/12/18 12:11:40;;;;;;;;;;;;;;;19.59;68.49;101552.94;5090253;28;1318;-76
2020/12/18 12:14:07;;;;;;;;;;;;;;;19.56;68.59;101556.59;5109089;28;1105;-73
2020/12/18 12:16:37;;;;;;;;;;;;;;;19.57;68.50;101554.81;5087818;28;1476;-73
2020/12/18 12:19:05;;;;;;;;;;;;;;;19.56;68.58;101553.06;5104679;28;1141;-75
2020/12/18 12:21:32;;;;;;;;;;;;;;;19.54;68.48;101547.88;5107625;28;1307;-72
2020/12/18 12:23:58;;;;;;;;;;;;;;;19.53;68.61;101538.22;5108503;27;2004;-71
2020/12/18 12:26:25;;;;;;;;;;;;;;;19.51;68.61;101539.25;5105863;27;1417;-72
2020/12/18 12:28:51;;;;;;;;;;;;;;;19.53;68.47;101534.72;5099721;27;1220;-73
2020/12/18 12:31:17;;;;;;;;;;;;;;;19.53;68.64;101537.38;5105184;28;1268;-71
2020/12/18 12:33:43;;;;;;;;;;;;;;;19.53;68.46;101526.78;5126034;27;1150;-72
2020/12/18 12:36:10;;;;;;;;;;;;;;;19.53;68.58;101526.78;5112945;27;1322;-71
2020/12/18 12:38:36;;;;;;;;;;;;;;;19.52;68.46;101525.06;5111422;27;1275;-73
2020/12/18 12:41:02;;;;;;;;;;;;;;;19.51;68.57;101526.03;5130200;27;1385;-71
2020/12/18 12:43:28;;;;;;;;;;;;;;;19.49;68.71;101514.66;5112438;27;1961;-74
2020/12/18 12:45:54;;;;;;;;;;;;;;;19.50;68.53;101508.44;5122296;27;1294;-72
2020/12/18 12:48:24;;;;;;;;;;;;;;;19.49;68.67;101509.38;5099975;28;1177;-73
2020/12/18 12:50:50;;;;;;;;;;;;;;;19.46;68.71;101509.50;5103032;27;1409;-73
2020/12/18 12:53:16;;;;;;;;;;;;;;;19.48;68.70;101507.69;5121736;27;1119;-74
2020/12/18 12:55:46;;;;;;;;;;;;;;;19.47;68.64;101505.94;5084065;28;1214;-71
2020/12/18 12:58:13;;;;;;;;;;;;;;;19.46;68.71;101506.88;5096667;27;1244;-73
2020/12/18 13:00:40;;;;;;;;;;;;;;;19.45;68.67;101502.53;5086504;28;1584;-73
2020/12/18 13:03:07;;;;;;;;;;;;;;;19.45;68.72;101492.84;5116439;27;1902;-73
2020/12/18 13:05:33;;;;;;;;;;;;;;;19.45;68.57;101491.97;5120659;27;1365;-73
2020/12/18 13:08:00;;;;;;;;;;;;;;;19.38;68.84;101472.00;5096000;27;1259;-73